Terminal Aerodrome Forecast
Issued by NWS

Home | Current Version | Previous Version | Text Only | Print | Product List | Glossary On
Versions: 1 2 3 4 5 6 7 8 9 10 11 12 13
000
FTUS46 KLOX 171700
TAFSBA
TAF
KSBA 171738Z 1718/1818 16006KT P6SM SKC
     FM172100 24012KT P6SM FEW100
     FM180100 VRB03KT P6SM FEW100 WS010/35030KT
     FM180700 VRB03KT P6SM FEW100
     FM181400 VRB03KT P6SM SCT010=

USA.gov is the U.S. government's official web portal to all federal, state and local government web resources and services.